createdAt,value
2022-10-17T00:00:57.968Z,15.02
2022-10-17T00:03:25.013Z,15.03
2022-10-17T00:05:52.168Z,15.03
2022-10-17T00:08:20.186Z,15.01
2022-10-17T00:11:01.226Z,14.97
2022-10-17T00:13:28.800Z,14.97
2022-10-17T00:15:55.869Z,14.97
2022-10-17T00:18:23.171Z,14.96
2022-10-17T00:20:50.916Z,14.96
2022-10-17T00:23:18.906Z,14.96
2022-10-17T00:25:45.959Z,14.95
2022-10-17T00:28:15.052Z,14.93
2022-10-17T00:30:42.133Z,14.92
2022-10-17T00:33:09.115Z,14.92
2022-10-17T00:35:36.132Z,14.92
2022-10-17T00:38:03.167Z,14.91
2022-10-17T00:40:30.124Z,14.90
2022-10-17T00:42:57.184Z,14.93
2022-10-17T00:45:31.360Z,14.91
2022-10-17T00:48:09.494Z,14.91
2022-10-17T00:50:40.054Z,14.90
2022-10-17T00:53:09.522Z,14.90
2022-10-17T00:55:47.545Z,14.92
2022-10-17T00:58:14.784Z,14.93
2022-10-17T01:00:48.826Z,14.96
2022-10-17T01:03:16.916Z,14.96
2022-10-17T01:05:44.263Z,14.99
2022-10-17T01:08:12.611Z,14.99
2022-10-17T01:11:04.570Z,15.00
2022-10-17T01:14:03.333Z,15.02
2022-10-17T01:16:54.664Z,15.03
2022-10-17T01:19:41.571Z,15.02
2022-10-17T01:22:12.193Z,15.03
2022-10-17T01:24:57.112Z,15.10
2022-10-17T01:27:49.801Z,15.14
2022-10-17T01:30:54.993Z,15.15
2022-10-17T01:34:12.927Z,15.20
2022-10-17T01:36:48.715Z,15.17
2022-10-17T01:39:48.327Z,15.21
2022-10-17T01:42:45.831Z,15.23
2022-10-17T01:45:48.531Z,15.23
2022-10-17T01:48:22.491Z,15.21
2022-10-17T01:50:59.674Z,15.21
2022-10-17T01:53:35.855Z,15.22
2022-10-17T01:56:06.989Z,15.21
2022-10-17T01:58:43.511Z,15.21
2022-10-17T02:01:12.979Z,15.21
2022-10-17T02:03:43.709Z,15.19
2022-10-17T02:06:10.874Z,15.19
2022-10-17T02:08:50.412Z,15.21
2022-10-17T02:11:26.832Z,15.19
2022-10-17T02:14:26.454Z,15.19
2022-10-17T02:17:35.501Z,15.18
2022-10-17T02:20:24.979Z,15.16
2022-10-17T02:22:59.558Z,15.15
2022-10-17T02:25:55.579Z,15.14
2022-10-17T02:29:00.598Z,15.11
2022-10-17T02:31:40.101Z,15.07
2022-10-17T02:34:22.775Z,15.09
2022-10-17T02:36:59.877Z,15.07
2022-10-17T02:39:29.313Z,15.07
2022-10-17T02:42:00.557Z,15.07
2022-10-17T02:44:29.670Z,15.09
2022-10-17T02:47:27.436Z,15.10
2022-10-17T02:49:58.539Z,15.10
2022-10-17T02:52:45.520Z,15.13
2022-10-17T02:55:39.958Z,15.16
2022-10-17T02:58:21.223Z,15.16
2022-10-17T03:00:49.056Z,15.16
2022-10-17T03:03:29.340Z,15.19
2022-10-17T03:05:56.732Z,15.20
2022-10-17T03:08:24.444Z,15.22
2022-10-17T03:10:51.933Z,15.23
2022-10-17T03:13:19.176Z,15.24
2022-10-17T03:15:46.955Z,15.24
2022-10-17T03:18:14.246Z,15.26
2022-10-17T03:20:41.353Z,15.27
2022-10-17T03:23:08.419Z,15.27
2022-10-17T03:25:35.463Z,15.29
2022-10-17T03:28:02.427Z,15.29
2022-10-17T03:30:29.790Z,15.30
2022-10-17T03:32:59.199Z,15.29
2022-10-17T03:35:27.717Z,15.29
2022-10-17T03:37:56.256Z,15.30
2022-10-17T03:40:23.406Z,15.28
2022-10-17T03:42:51.016Z,15.29
2022-10-17T03:45:18.020Z,15.28
2022-10-17T03:47:45.023Z,15.29
2022-10-17T03:50:12.446Z,15.30
2022-10-17T03:52:39.555Z,15.31
2022-10-17T03:55:06.967Z,15.32
2022-10-17T03:57:36.624Z,15.36
2022-10-17T04:00:05.420Z,15.37
2022-10-17T04:02:32.521Z,15.39
2022-10-17T04:04:59.689Z,15.43
2022-10-17T04:09:53.734Z,15.51
2022-10-17T04:12:20.783Z,15.54
2022-10-17T04:14:47.795Z,15.58
2022-10-17T04:17:14.805Z,15.62
2022-10-17T04:19:41.911Z,15.68
2022-10-17T04:22:08.864Z,15.72
2022-10-17T04:24:35.838Z,15.77
2022-10-17T04:27:03.122Z,15.79
2022-10-17T04:29:30.160Z,15.81
2022-10-17T04:32:00.308Z,15.83
2022-10-17T04:34:27.334Z,15.84
2022-10-17T04:36:54.605Z,15.85
2022-10-17T04:39:21.753Z,15.86
2022-10-17T04:41:48.775Z,15.87
2022-10-17T04:44:15.786Z,15.88
2022-10-17T04:46:42.928Z,15.88
2022-10-17T04:49:10.004Z,15.90
2022-10-17T04:51:39.112Z,15.91
2022-10-17T04:54:06.553Z,15.89
2022-10-17T04:56:33.767Z,15.93
2022-10-17T04:59:00.795Z,15.94
2022-10-17T05:01:28.446Z,15.94
2022-10-17T05:03:56.126Z,15.93
2022-10-17T05:06:28.192Z,15.89
2022-10-17T05:08:55.580Z,15.90
2022-10-17T05:11:25.760Z,15.93
2022-10-17T05:13:56.635Z,15.92
2022-10-17T05:16:24.910Z,15.93
2022-10-17T05:18:55.122Z,15.91
2022-10-17T05:21:24.610Z,15.92
2022-10-17T05:23:52.196Z,15.90
2022-10-17T05:26:20.030Z,15.91
2022-10-17T05:28:47.445Z,15.91
2022-10-17T05:31:14.971Z,15.93
2022-10-17T05:33:42.322Z,15.93
2022-10-17T05:36:10.063Z,15.97
2022-10-17T05:38:37.310Z,15.96
2022-10-17T05:41:06.268Z,16.00
2022-10-17T05:43:34.685Z,16.02
2022-10-17T05:46:07.121Z,16.04
2022-10-17T05:48:34.828Z,16.05
2022-10-17T05:51:08.862Z,16.03
2022-10-17T05:53:39.972Z,16.04
2022-10-17T05:56:10.735Z,16.04
2022-10-17T05:58:50.340Z,16.04
2022-10-17T06:01:18.985Z,16.04
2022-10-17T06:03:46.006Z,16.05
2022-10-17T06:06:14.925Z,16.10
2022-10-17T06:08:42.780Z,16.11
2022-10-17T06:11:10.873Z,16.14
2022-10-17T06:13:39.296Z,16.19
2022-10-17T06:16:07.048Z,16.23
2022-10-17T06:18:34.435Z,16.27
2022-10-17T06:21:08.673Z,16.33
2022-10-17T06:23:35.996Z,16.39
2022-10-17T06:26:05.399Z,16.43
2022-10-17T06:28:33.793Z,16.45
2022-10-17T06:31:07.626Z,16.49
2022-10-17T06:33:35.443Z,16.57
2022-10-17T06:36:03.658Z,16.61
2022-10-17T06:38:30.761Z,16.68
2022-10-17T06:41:14.379Z,16.75
2022-10-17T06:43:45.721Z,16.83
2022-10-17T06:46:15.192Z,16.92
2022-10-17T06:48:42.591Z,16.98
2022-10-17T06:51:11.423Z,17.06
2022-10-17T06:53:40.292Z,17.13
2022-10-17T06:56:09.578Z,17.22
2022-10-17T06:58:39.699Z,17.32
2022-10-17T07:01:13.397Z,17.37
2022-10-17T07:03:41.371Z,17.42
2022-10-17T07:06:10.850Z,17.42
2022-10-17T07:08:38.143Z,17.41
2022-10-17T07:11:18.612Z,17.44
2022-10-17T07:13:49.206Z,17.50
2022-10-17T07:16:16.930Z,17.59
2022-10-17T07:18:44.429Z,17.69
2022-10-17T07:21:11.550Z,17.80
2022-10-17T07:23:39.900Z,17.85
2022-10-17T07:26:11.093Z,17.84
2022-10-17T07:28:42.375Z,17.85
2022-10-17T07:31:13.266Z,17.81
2022-10-17T07:33:41.071Z,17.83
2022-10-17T07:36:08.684Z,17.78
2022-10-17T07:38:37.010Z,17.82
2022-10-17T07:41:06.584Z,17.83
2022-10-17T07:43:34.775Z,17.90
2022-10-17T07:46:03.352Z,17.87
2022-10-17T07:48:30.798Z,17.88
2022-10-17T07:50:58.055Z,17.89
2022-10-17T07:53:25.130Z,17.97
2022-10-17T07:55:52.192Z,18.08
2022-10-17T07:58:19.238Z,18.21
2022-10-17T08:00:48.610Z,18.29
2022-10-17T08:03:15.812Z,18.33
2022-10-17T08:05:42.856Z,18.34
2022-10-17T08:08:09.838Z,18.46
2022-10-17T08:10:37.428Z,18.71
2022-10-17T08:13:04.503Z,18.89
2022-10-17T08:15:32.146Z,18.91
2022-10-17T08:17:59.630Z,18.88
2022-10-17T08:20:26.875Z,18.86
2022-10-17T08:22:55.423Z,18.83
2022-10-17T08:25:23.496Z,18.81
2022-10-17T08:27:51.880Z,18.79
2022-10-17T08:30:20.329Z,18.75
2022-10-17T08:32:47.340Z,18.70
2022-10-17T08:35:14.880Z,18.74
2022-10-17T08:37:42.025Z,18.77
2022-10-17T08:40:21.033Z,18.79
2022-10-17T08:43:12.511Z,18.81
2022-10-17T08:46:03.196Z,18.80
2022-10-17T08:48:42.623Z,18.79
2022-10-17T08:51:28.319Z,18.79
2022-10-17T08:54:10.093Z,18.79
2022-10-17T08:56:49.168Z,18.87
2022-10-17T08:59:29.595Z,18.99
2022-10-17T09:02:54.508Z,19.08
2022-10-17T09:05:35.111Z,19.07
2022-10-17T09:08:12.947Z,19.01
2022-10-17T09:11:20.109Z,18.92
2022-10-17T09:14:02.043Z,18.77
2022-10-17T09:16:37.684Z,18.64
2022-10-17T09:19:11.738Z,18.50
2022-10-17T09:21:54.160Z,18.39
2022-10-17T09:24:31.540Z,18.29
2022-10-17T09:26:59.366Z,18.22
2022-10-17T09:29:32.370Z,18.23
2022-10-17T09:32:17.487Z,18.25
2022-10-17T09:34:44.630Z,18.28
2022-10-17T09:37:15.440Z,18.25
2022-10-17T09:39:45.836Z,18.25
2022-10-17T09:42:21.461Z,18.27
2022-10-17T09:45:25.942Z,18.37
2022-10-17T09:48:04.615Z,18.47
2022-10-17T09:50:34.971Z,18.51
2022-10-17T09:53:31.122Z,18.50
2022-10-17T09:56:02.147Z,18.45
2022-10-17T09:59:01.906Z,18.48
2022-10-17T10:01:31.818Z,18.52
2022-10-17T10:04:15.747Z,18.65
2022-10-17T10:07:06.499Z,18.74
2022-10-17T10:09:39.360Z,18.77
2022-10-17T10:12:22.657Z,18.77
2022-10-17T10:14:53.338Z,18.69
2022-10-17T10:17:33.606Z,18.64
2022-10-17T10:20:01.681Z,18.68
2022-10-17T10:22:29.133Z,18.71
2022-10-17T10:25:15.172Z,18.73
2022-10-17T10:27:45.235Z,18.71
2022-10-17T10:30:29.961Z,18.77
2022-10-17T10:32:59.980Z,18.88
2022-10-17T10:35:33.389Z,19.08
2022-10-17T10:38:04.040Z,19.31
2022-10-17T10:40:47.135Z,19.51
2022-10-17T10:43:43.212Z,19.53
2022-10-17T10:46:27.310Z,19.46
2022-10-17T10:49:00.870Z,19.37
2022-10-17T10:51:40.210Z,19.33
2022-10-17T10:54:51.044Z,19.36
2022-10-17T10:57:23.049Z,19.44
2022-10-17T11:00:13.003Z,19.55
2022-10-17T11:03:17.751Z,19.68
2022-10-17T11:05:53.470Z,19.75
2022-10-17T11:08:50.262Z,19.77
2022-10-17T11:11:39.885Z,19.79
2022-10-17T11:14:38.205Z,19.81
2022-10-17T11:17:29.714Z,19.73
2022-10-17T11:20:19.959Z,19.66
2022-10-17T11:22:57.850Z,19.64
2022-10-17T11:25:40.743Z,19.60
2022-10-17T11:28:18.471Z,19.57
2022-10-17T11:31:10.121Z,19.59
2022-10-17T11:33:56.037Z,19.59
2022-10-17T11:36:30.109Z,19.57
2022-10-17T11:39:11.478Z,19.52
2022-10-17T11:41:55.491Z,19.50
2022-10-17T11:44:37.215Z,19.49
2022-10-17T11:47:26.436Z,19.39
2022-10-17T11:53:32.057Z,19.44
2022-10-17T11:56:00.603Z,19.37
2022-10-17T11:58:53.215Z,19.34
2022-10-17T12:01:46.969Z,19.33
2022-10-17T12:04:59.430Z,19.35
2022-10-17T12:08:26.990Z,19.23
2022-10-17T12:11:14.202Z,19.25
2022-10-17T12:13:41.974Z,19.30
2022-10-17T12:16:20.992Z,19.37
2022-10-17T12:19:11.877Z,19.40
2022-10-17T12:22:00.768Z,19.44
2022-10-17T12:24:52.959Z,19.52
2022-10-17T12:27:30.656Z,19.63
2022-10-17T12:30:12.505Z,19.79
2022-10-17T12:33:06.238Z,19.96
2022-10-17T12:35:36.814Z,20.04
2022-10-17T12:38:22.954Z,20.07
2022-10-17T12:40:53.120Z,20.04
2022-10-17T12:43:29.197Z,20.05
2022-10-17T12:46:02.166Z,20.04
2022-10-17T12:48:37.903Z,20.06
2022-10-17T12:54:15.505Z,20.09
2022-10-17T12:56:47.943Z,20.02
2022-10-17T12:59:26.181Z,20.16
2022-10-17T13:01:59.065Z,20.44
2022-10-17T13:04:28.913Z,20.57
2022-10-17T13:07:00.658Z,20.56
2022-10-17T13:09:37.574Z,20.54
2022-10-17T13:12:12.369Z,20.50
2022-10-17T13:14:42.876Z,20.47
2022-10-17T13:17:30.751Z,20.38
2022-10-17T13:19:58.611Z,20.30
2022-10-17T13:22:32.909Z,20.22
2022-10-17T13:25:19.187Z,20.21
2022-10-17T13:27:46.796Z,20.21
2022-10-17T13:30:32.627Z,20.21
2022-10-17T13:33:01.519Z,20.15
2022-10-17T13:35:58.732Z,20.13
2022-10-17T13:38:29.886Z,20.14
2022-10-17T13:41:05.914Z,20.27
2022-10-17T13:43:38.875Z,20.38
2022-10-17T13:46:32.640Z,20.44
2022-10-17T13:48:54.104Z,20.42
2022-10-17T13:51:21.832Z,20.40
2022-10-17T13:53:49.456Z,20.32
2022-10-17T13:56:29.319Z,20.28
2022-10-17T13:59:18.330Z,20.28
2022-10-17T14:01:45.808Z,20.25
2022-10-17T14:04:19.862Z,20.29
2022-10-17T14:06:51.288Z,20.37
2022-10-17T14:09:29.225Z,20.36
2022-10-17T14:12:11.131Z,20.33
2022-10-17T14:14:58.388Z,20.31
2022-10-17T14:17:30.063Z,20.23
2022-10-17T14:23:17.566Z,20.14
2022-10-17T14:25:41.131Z,20.17
2022-10-17T14:28:11.741Z,20.19
2022-10-17T14:30:56.204Z,20.14
2022-10-17T14:33:32.452Z,20.18
2022-10-17T14:36:02.556Z,20.19
2022-10-17T14:38:30.330Z,20.19
2022-10-17T14:41:30.562Z,20.17
2022-10-17T14:44:02.435Z,20.19
2022-10-17T14:46:29.605Z,20.17
2022-10-17T14:49:21.735Z,20.19
2022-10-17T14:52:29.209Z,20.19
2022-10-17T14:54:58.009Z,20.14
2022-10-17T14:57:28.272Z,20.13
2022-10-17T14:59:57.235Z,20.12
2022-10-17T15:02:30.742Z,20.09
2022-10-17T15:04:58.156Z,20.07
2022-10-17T15:07:25.198Z,20.04
2022-10-17T15:09:53.966Z,20.02
2022-10-17T15:12:25.346Z,20.02
2022-10-17T15:14:53.343Z,20.06
2022-10-17T15:17:31.310Z,20.10
2022-10-17T15:19:59.057Z,20.11
2022-10-17T15:22:26.501Z,20.10
2022-10-17T15:24:53.607Z,20.11
2022-10-17T15:27:24.017Z,20.07
2022-10-17T15:29:52.836Z,20.02
2022-10-17T15:32:19.867Z,20.00
2022-10-17T15:34:46.869Z,20.00
2022-10-17T15:37:20.938Z,19.98
2022-10-17T15:39:54.704Z,19.92
2022-10-17T15:42:27.608Z,19.83
2022-10-17T15:44:55.345Z,19.78
2022-10-17T15:47:31.304Z,19.73
2022-10-17T15:50:00.464Z,19.67
2022-10-17T15:52:27.789Z,19.63
2022-10-17T15:54:57.341Z,19.57
2022-10-17T15:57:30.743Z,19.54
2022-10-17T16:00:00.274Z,19.47
2022-10-17T16:02:28.019Z,19.40
2022-10-17T16:04:55.161Z,19.32
2022-10-17T16:07:22.410Z,19.24
2022-10-17T16:09:49.488Z,19.19
2022-10-17T16:12:27.952Z,19.12
2022-10-17T16:14:55.570Z,19.05
2022-10-17T16:17:22.581Z,18.98
2022-10-17T16:19:50.074Z,18.93
2022-10-17T16:22:33.276Z,18.88
2022-10-17T16:25:07.853Z,18.81
2022-10-17T16:27:36.738Z,18.77
2022-10-17T16:30:08.671Z,18.71
2022-10-17T16:32:35.735Z,18.68
2022-10-17T16:35:02.904Z,18.63
2022-10-17T16:37:29.999Z,18.56
2022-10-17T16:39:56.966Z,18.54
2022-10-17T16:42:24.262Z,18.51
2022-10-17T16:44:51.418Z,18.49
2022-10-17T16:47:19.173Z,18.46
2022-10-17T16:49:46.401Z,18.43
2022-10-17T16:52:13.773Z,18.40
2022-10-17T16:54:41.008Z,18.38
2022-10-17T16:57:08.130Z,18.34
2022-10-17T16:59:35.181Z,18.32
2022-10-17T17:02:02.202Z,18.32
2022-10-17T17:04:29.325Z,18.29
2022-10-17T17:06:56.435Z,18.27
2022-10-17T17:09:23.653Z,18.22
2022-10-17T17:11:50.621Z,18.22
2022-10-17T17:14:17.569Z,18.20
2022-10-17T17:16:44.528Z,18.16
2022-10-17T17:19:15.165Z,18.14
2022-10-17T17:21:47.662Z,18.12
2022-10-17T17:24:15.112Z,18.09
2022-10-17T17:26:42.154Z,18.09
2022-10-17T17:29:10.935Z,18.05
2022-10-17T17:31:39.415Z,18.03
2022-10-17T17:34:06.453Z,18.03
2022-10-17T17:36:37.063Z,17.99
2022-10-17T17:39:07.872Z,17.98
2022-10-17T17:41:35.498Z,17.98
2022-10-17T17:44:04.087Z,17.95
2022-10-17T17:46:31.239Z,17.93
2022-10-17T17:48:58.533Z,17.91
2022-10-17T17:51:29.469Z,17.91
2022-10-17T17:53:57.083Z,17.89
2022-10-17T17:56:27.630Z,17.89
2022-10-17T17:59:00.803Z,17.88
2022-10-17T18:01:38.086Z,17.86
2022-10-17T18:04:08.721Z,17.84
2022-10-17T18:06:37.637Z,17.83
2022-10-17T18:09:06.552Z,17.82
2022-10-17T18:11:33.885Z,17.83
2022-10-17T18:14:05.399Z,17.82
2022-10-17T18:16:35.070Z,17.82
2022-10-17T18:19:08.891Z,17.80
2022-10-17T18:21:37.050Z,17.79
2022-10-17T18:24:04.912Z,17.80
2022-10-17T18:26:32.308Z,17.78
2022-10-17T18:28:59.434Z,17.78
2022-10-17T18:31:35.686Z,17.78
2022-10-17T18:34:05.026Z,17.78
2022-10-17T18:36:34.468Z,17.78
2022-10-17T18:39:02.697Z,17.76
2022-10-17T18:41:30.071Z,17.76
2022-10-17T18:43:57.752Z,17.76
2022-10-17T18:46:36.599Z,17.75
2022-10-17T18:49:03.794Z,17.74
2022-10-17T18:51:30.868Z,17.73
2022-10-17T18:53:58.821Z,17.70
2022-10-17T18:56:26.682Z,17.68
2022-10-17T18:58:57.038Z,17.68
2022-10-17T19:01:27.254Z,17.66
2022-10-17T19:03:57.484Z,17.65
2022-10-17T19:06:33.681Z,17.63
2022-10-17T19:09:05.023Z,17.62
2022-10-17T19:11:34.024Z,17.60
2022-10-17T19:14:03.889Z,17.56
2022-10-17T19:16:45.596Z,17.58
2022-10-17T19:19:25.766Z,17.55
2022-10-17T19:21:53.311Z,17.54
2022-10-17T19:24:27.521Z,17.54
2022-10-17T19:26:59.494Z,17.56
2022-10-17T19:29:28.727Z,17.55
2022-10-17T19:34:22.761Z,17.54
2022-10-17T19:36:50.205Z,17.53
2022-10-17T19:39:23.289Z,17.52
2022-10-17T19:41:50.465Z,17.51
2022-10-17T19:44:17.798Z,17.49
2022-10-17T19:46:46.941Z,17.47
2022-10-17T19:49:14.558Z,17.48
2022-10-17T19:51:42.219Z,17.45
2022-10-17T19:54:10.789Z,17.44
2022-10-17T19:56:38.278Z,17.42
2022-10-17T19:59:06.793Z,17.39
2022-10-17T20:01:38.905Z,17.40
2022-10-17T20:04:07.723Z,17.38
2022-10-17T20:06:35.353Z,17.37
2022-10-17T20:09:03.304Z,17.34
2022-10-17T20:11:30.597Z,17.32
2022-10-17T20:13:59.452Z,17.33
2022-10-17T20:16:33.769Z,17.29
2022-10-17T20:19:09.472Z,17.25
2022-10-17T20:21:39.422Z,17.23
2022-10-17T20:24:11.389Z,17.24
2022-10-17T20:26:39.364Z,17.23
2022-10-17T20:29:18.394Z,17.22
2022-10-17T20:31:46.780Z,17.20
2022-10-17T20:34:16.819Z,17.17
2022-10-17T20:36:44.592Z,17.16
2022-10-17T20:39:14.020Z,17.12
2022-10-17T20:41:41.591Z,17.11
2022-10-17T20:44:09.056Z,17.09
2022-10-17T20:46:41.582Z,17.07
2022-10-17T20:49:17.971Z,17.07
2022-10-17T20:51:45.944Z,17.06
2022-10-17T20:54:13.131Z,17.00
2022-10-17T20:56:40.319Z,17.01
2022-10-17T20:59:17.919Z,17.00
2022-10-17T21:01:45.743Z,16.98
2022-10-17T21:04:44.121Z,16.97
2022-10-17T21:07:00.354Z,16.94
2022-10-17T21:09:27.627Z,16.94
2022-10-17T21:11:55.943Z,16.94
2022-10-17T21:14:24.984Z,16.95
2022-10-17T21:16:52.479Z,16.94
2022-10-17T21:19:21.722Z,16.92
2022-10-17T21:21:49.079Z,16.89
2022-10-17T21:24:19.270Z,16.88
2022-10-17T21:26:50.336Z,16.86
2022-10-17T21:29:17.288Z,16.85
2022-10-17T21:31:45.095Z,16.85
2022-10-17T21:34:27.898Z,16.81
2022-10-17T21:36:55.145Z,16.79
2022-10-17T21:39:24.821Z,16.79
2022-10-17T21:41:52.920Z,16.81
2022-10-17T21:44:26.703Z,16.77
2022-10-17T21:46:55.174Z,16.74
2022-10-17T21:49:24.881Z,16.77
2022-10-17T21:51:52.681Z,16.77
2022-10-17T21:54:22.954Z,16.71
2022-10-17T21:56:51.081Z,16.68
2022-10-17T21:59:18.468Z,16.69
2022-10-17T22:01:46.385Z,16.67
2022-10-17T22:04:17.752Z,16.66
2022-10-17T22:06:47.503Z,16.65
2022-10-17T22:09:23.416Z,16.65
2022-10-17T22:11:54.721Z,16.65
2022-10-17T22:14:26.052Z,16.63
2022-10-17T22:16:53.860Z,16.61
2022-10-17T22:19:26.707Z,16.58
2022-10-17T22:21:54.717Z,16.57
2022-10-17T22:24:22.394Z,16.55
2022-10-17T22:26:49.687Z,16.51
2022-10-17T22:29:17.632Z,16.52
2022-10-17T22:31:44.908Z,16.52
2022-10-17T22:34:15.683Z,16.51
2022-10-17T22:36:43.315Z,16.50
2022-10-17T22:39:11.292Z,16.47
2022-10-17T22:41:38.462Z,16.44
2022-10-17T22:44:05.946Z,16.45
2022-10-17T22:46:33.234Z,16.42
2022-10-17T22:49:00.247Z,16.39
2022-10-17T22:51:27.476Z,16.36
2022-10-17T22:53:54.591Z,16.35
2022-10-17T22:56:23.582Z,16.35
2022-10-17T22:58:51.397Z,16.36
2022-10-17T23:01:22.666Z,16.37
2022-10-17T23:03:51.074Z,16.35
2022-10-17T23:06:19.012Z,16.36
2022-10-17T23:08:46.181Z,16.37
2022-10-17T23:11:13.345Z,16.37
2022-10-17T23:13:41.032Z,16.37
2022-10-17T23:16:08.864Z,16.40
2022-10-17T23:18:37.736Z,16.41
2022-10-17T23:21:05.374Z,16.42
2022-10-17T23:23:32.365Z,16.45
2022-10-17T23:26:09.424Z,16.44
2022-10-17T23:28:36.781Z,16.45
2022-10-17T23:31:17.090Z,16.49
2022-10-17T23:33:45.961Z,16.47
2022-10-17T23:36:16.221Z,16.49
2022-10-17T23:38:45.530Z,16.50
2022-10-17T23:41:13.456Z,16.51
2022-10-17T23:43:41.008Z,16.53
2022-10-17T23:46:08.612Z,16.52
2022-10-17T23:48:35.907Z,16.53
2022-10-17T23:51:03.576Z,16.53
2022-10-17T23:53:31.061Z,16.51
2022-10-17T23:55:57.987Z,16.53
2022-10-17T23:58:24.970Z,16.53
